Time;durP1;ratioP1;P1;durP2;ratioP2;P2;SDS_P1;SDS_P2;PMS_P1;PMS_P2;Temp;Humidity;BMP_temperature;BMP_pressure;BME280_temperature;BME280_humidity;BME280_pressure;Samples;Min_cycle;Max_cycle;Signal;HPM_P1;HPM_P2
2021/07/13 00:01:45;;;;;;;3.03;2.58;;;;;;;;;;5091669;28;20382;-61
2021/07/13 00:04:11;;;;;;;2.92;2.72;;;;;;;;;;5091988;28;20090;-61
2021/07/13 00:06:36;;;;;;;2.60;2.40;;;;;;;;;;5089149;28;20056;-61
2021/07/13 00:09:02;;;;;;;4.30;2.92;;;;;;;;;;5092174;28;20028;-61
2021/07/13 00:11:27;;;;;;;3.20;3.00;;;;;;;;;;5092745;28;20008;-61
2021/07/13 00:13:52;;;;;;;3.25;3.00;;;;;;;;;;5091635;28;20498;-61
2021/07/13 00:16:18;;;;;;;3.45;2.85;;;;;;;;;;5089433;28;20031;-60
2021/07/13 00:18:43;;;;;;;3.50;3.20;;;;;;;;;;5092013;28;20030;-61
2021/07/13 00:21:09;;;;;;;3.67;2.90;;;;;;;;;;5091758;28;20100;-61
2021/07/13 00:23:34;;;;;;;3.92;3.55;;;;;;;;;;5091575;28;20095;-59
2021/07/13 00:26:00;;;;;;;3.00;2.80;;;;;;;;;;5088630;28;20016;-60
2021/07/13 00:28:25;;;;;;;3.45;3.15;;;;;;;;;;5091452;28;20024;-60
2021/07/13 00:30:50;;;;;;;3.42;3.08;;;;;;;;;;5091648;28;20501;-60
2021/07/13 00:33:15;;;;;;;5.03;3.03;;;;;;;;;;5091775;28;20036;-60
2021/07/13 00:35:41;;;;;;;3.45;3.20;;;;;;;;;;5088972;28;20023;-60
2021/07/13 00:38:06;;;;;;;3.30;2.88;;;;;;;;;;5091843;28;20020;-60
2021/07/13 00:40:31;;;;;;;3.70;2.65;;;;;;;;;;5091649;28;20030;-60
2021/07/13 00:42:57;;;;;;;2.85;2.40;;;;;;;;;;5091768;28;20024;-60
2021/07/13 00:45:22;;;;;;;2.75;1.88;;;;;;;;;;5088842;28;20677;-59
2021/07/13 00:47:48;;;;;;;3.40;2.00;;;;;;;;;;5092310;28;20123;-60
2021/07/13 00:50:14;;;;;;;2.92;2.33;;;;;;;;;;5090683;28;20032;-59
2021/07/13 00:52:40;;;;;;;2.75;2.25;;;;;;;;;;5112255;28;20051;-60
2021/07/13 00:55:05;;;;;;;2.25;2.08;;;;;;;;;;5089000;28;20126;-61
2021/07/13 00:57:30;;;;;;;5.10;2.17;;;;;;;;;;5091336;28;20108;-60
2021/07/13 00:59:55;;;;;;;2.17;2.08;;;;;;;;;;5091348;28;20266;-61
2021/07/13 01:02:21;;;;;;;2.17;2.08;;;;;;;;;;5091770;28;20046;-61
2021/07/13 01:04:50;;;;;;;3.03;2.40;;;;;;;;;;5089677;28;20455;-60
2021/07/13 01:07:38;;;;;;;3.75;2.78;;;;;;;;;;5089098;28;20449;-60
2021/07/13 01:10:15;;;;;;;3.30;1.95;;;;;;;;;;5048842;28;20524;-60
2021/07/13 01:12:47;;;;;;;2.97;2.67;;;;;;;;;;5061611;28;20502;-60
2021/07/13 01:15:14;;;;;;;5.47;3.35;;;;;;;;;;5065315;28;20295;-61
2021/07/13 01:17:51;;;;;;;2.72;2.53;;;;;;;;;;5064585;28;20079;-61
2021/07/13 01:20:32;;;;;;;3.72;3.03;;;;;;;;;;5062873;28;20036;-61
2021/07/13 01:23:11;;;;;;;3.35;3.13;;;;;;;;;;5068953;28;20103;-61
2021/07/13 01:25:56;;;;;;;3.80;3.47;;;;;;;;;;5065384;28;20462;-61
2021/07/13 01:28:22;;;;;;;3.78;3.50;;;;;;;;;;5068630;28;20029;-60
2021/07/13 01:30:52;;;;;;;4.07;3.78;;;;;;;;;;5068163;28;20519;-60
2021/07/13 01:33:21;;;;;;;4.38;4.00;;;;;;;;;;5066380;28;20045;-60
2021/07/13 01:35:52;;;;;;;4.57;4.05;;;;;;;;;;5064507;28;20035;-60
2021/07/13 01:38:19;;;;;;;3.83;3.50;;;;;;;;;;5068960;28;20056;-60
2021/07/13 01:40:47;;;;;;;4.45;4.05;;;;;;;;;;5068771;28;20372;-61
2021/07/13 01:43:13;;;;;;;4.10;3.80;;;;;;;;;;5068695;28;20052;-60
2021/07/13 01:45:40;;;;;;;3.90;3.60;;;;;;;;;;5048683;28;20409;-60
2021/07/13 01:48:08;;;;;;;3.70;3.40;;;;;;;;;;5078596;28;20469;-60
2021/07/13 01:50:33;;;;;;;3.58;3.28;;;;;;;;;;5094982;28;20042;-60
2021/07/13 01:52:59;;;;;;;3.70;3.42;;;;;;;;;;5096856;28;20143;-60
2021/07/13 01:55:24;;;;;;;4.00;3.53;;;;;;;;;;5091535;28;20303;-61
2021/07/13 01:57:51;;;;;;;4.35;3.63;;;;;;;;;;5094297;28;20023;-60
2021/07/13 02:00:16;;;;;;;3.45;3.15;;;;;;;;;;5094564;28;20028;-60
2021/07/13 02:02:44;;;;;;;3.97;3.67;;;;;;;;;;5094479;28;20030;-60
2021/07/13 02:05:10;;;;;;;3.70;3.40;;;;;;;;;;5091625;28;20248;-60
2021/07/13 02:07:37;;;;;;;3.72;3.25;;;;;;;;;;5094902;28;20466;-60
2021/07/13 02:10:03;;;;;;;3.60;3.40;;;;;;;;;;5094238;28;20103;-60
2021/07/13 02:12:28;;;;;;;3.90;3.60;;;;;;;;;;5094089;28;20024;-60
2021/07/13 02:14:53;;;;;;;3.25;3.10;;;;;;;;;;5092574;28;20020;-60
2021/07/13 02:17:19;;;;;;;3.33;3.08;;;;;;;;;;5093043;28;20467;-60
2021/07/13 02:19:44;;;;;;;4.05;3.70;;;;;;;;;;5094119;28;20035;-59
2021/07/13 02:22:09;;;;;;;3.75;3.45;;;;;;;;;;5093663;28;20390;-60
2021/07/13 02:24:35;;;;;;;3.85;3.63;;;;;;;;;;5094302;28;20020;-60
2021/07/13 02:27:06;;;;;;;3.97;3.75;;;;;;;;;;5091267;28;20628;-60
2021/07/13 02:29:44;;;;;;;3.83;3.50;;;;;;;;;;5093949;28;20417;-60
2021/07/13 02:32:32;;;;;;;4.22;3.67;;;;;;;;;;5094464;28;20530;-60
2021/07/13 02:34:59;;;;;;;3.88;3.50;;;;;;;;;;5088836;28;20398;-61
2021/07/13 02:37:25;;;;;;;4.43;3.63;;;;;;;;;;5093840;28;20024;-60
2021/07/13 02:39:51;;;;;;;3.75;3.45;;;;;;;;;;5093329;28;20030;-60
2021/07/13 02:42:16;;;;;;;3.95;3.58;;;;;;;;;;5093493;28;20024;-59
2021/07/13 02:44:42;;;;;;;5.45;3.20;;;;;;;;;;5093326;28;20012;-60
2021/07/13 02:47:10;;;;;;;5.07;3.20;;;;;;;;;;5090948;28;20021;-61
2021/07/13 02:49:43;;;;;;;3.08;2.88;;;;;;;;;;5092988;28;20020;-61
2021/07/13 02:52:10;;;;;;;5.95;2.92;;;;;;;;;;5093429;28;20052;-60
2021/07/13 02:54:36;;;;;;;2.97;2.78;;;;;;;;;;5093009;28;20471;-60
2021/07/13 02:57:02;;;;;;;4.13;3.10;;;;;;;;;;5090027;28;20182;-60
2021/07/13 02:59:28;;;;;;;4.00;2.67;;;;;;;;;;5093164;28;20035;-60
2021/07/13 03:01:54;;;;;;;3.05;2.85;;;;;;;;;;5093171;28;20062;-60
2021/07/13 03:04:20;;;;;;;3.03;2.80;;;;;;;;;;5093283;28;20074;-60
2021/07/13 03:06:45;;;;;;;3.95;2.85;;;;;;;;;;5090657;28;20490;-60
2021/07/13 03:09:11;;;;;;;3.13;2.88;;;;;;;;;;5093068;28;20161;-60
2021/07/13 03:11:37;;;;;;;3.50;2.65;;;;;;;;;;5093618;28;20016;-60
2021/07/13 03:14:03;;;;;;;3.28;2.80;;;;;;;;;;5091992;28;20039;-60
2021/07/13 03:16:32;;;;;;;3.13;2.92;;;;;;;;;;5090413;28;20501;-60
2021/07/13 03:18:58;;;;;;;3.05;2.65;;;;;;;;;;5092762;28;20463;-60
2021/07/13 03:21:25;;;;;;;3.50;2.83;;;;;;;;;;5093119;28;20028;-61
2021/07/13 03:23:51;;;;;;;3.80;3.50;;;;;;;;;;5092578;28;20022;-58
2021/07/13 03:26:17;;;;;;;3.22;2.90;;;;;;;;;;5090459;28;20061;-59
2021/07/13 03:28:42;;;;;;;4.07;3.67;;;;;;;;;;5092538;28;20020;-59
2021/07/13 03:31:08;;;;;;;3.70;3.40;;;;;;;;;;5092830;28;20012;-59
2021/07/13 03:33:34;;;;;;;4.55;3.55;;;;;;;;;;5092484;28;20024;-59
2021/07/13 03:35:59;;;;;;;4.95;4.05;;;;;;;;;;5089930;28;20020;-59
2021/07/13 03:38:25;;;;;;;5.05;3.55;;;;;;;;;;5092821;28;20466;-60
2021/07/13 03:40:50;;;;;;;4.22;3.83;;;;;;;;;;5092195;28;20028;-60
2021/07/13 03:43:16;;;;;;;4.15;3.20;;;;;;;;;;5092374;28;20020;-60
2021/07/13 03:45:41;;;;;;;3.38;3.08;;;;;;;;;;5089496;28;20091;-61
2021/07/13 03:48:09;;;;;;;3.72;3.42;;;;;;;;;;5092945;28;20020;-60
2021/07/13 03:50:34;;;;;;;3.22;2.92;;;;;;;;;;5088078;28;20064;-60
2021/07/13 03:53:00;;;;;;;3.25;3.05;;;;;;;;;;5094079;28;20056;-60
2021/07/13 03:55:25;;;;;;;3.17;2.88;;;;;;;;;;5082411;28;20058;-60
2021/07/13 03:57:52;;;;;;;3.25;2.88;;;;;;;;;;5080048;28;20047;-60
2021/07/13 04:00:18;;;;;;;2.80;2.60;;;;;;;;;;5080978;28;20020;-60
2021/07/13 04:02:44;;;;;;;3.25;2.95;;;;;;;;;;5083393;28;20031;-60
2021/07/13 04:05:09;;;;;;;2.83;2.60;;;;;;;;;;5087030;28;20019;-60
2021/07/13 04:07:35;;;;;;;2.97;2.78;;;;;;;;;;5092368;28;20024;-60
2021/07/13 04:10:00;;;;;;;2.63;2.42;;;;;;;;;;5091863;28;20027;-60
2021/07/13 04:12:25;;;;;;;2.83;2.63;;;;;;;;;;5091546;28;20027;-60
2021/07/13 04:14:50;;;;;;;3.53;2.67;;;;;;;;;;5089003;28;20028;-61
2021/07/13 04:17:16;;;;;;;3.10;2.80;;;;;;;;;;5090285;28;20026;-60
2021/07/13 04:19:42;;;;;;;6.72;3.13;;;;;;;;;;5091182;28;20088;-59
2021/07/13 04:22:07;;;;;;;3.53;3.22;;;;;;;;;;5092169;28;20016;-60
2021/07/13 04:24:32;;;;;;;4.45;3.25;;;;;;;;;;5091492;28;20032;-60
2021/07/13 04:26:57;;;;;;;4.93;3.55;;;;;;;;;;5088844;28;20061;-61
2021/07/13 04:29:23;;;;;;;4.07;2.88;;;;;;;;;;5091580;28;20023;-61
2021/07/13 04:31:48;;;;;;;3.80;2.90;;;;;;;;;;5091532;28;20450;-60
2021/07/13 04:34:13;;;;;;;3.67;3.03;;;;;;;;;;5091479;28;20016;-59
2021/07/13 04:36:38;;;;;;;2.85;2.63;;;;;;;;;;5088866;28;20019;-59
2021/07/13 04:39:06;;;;;;;4.25;3.05;;;;;;;;;;5089725;28;20012;-59
2021/07/13 04:41:31;;;;;;;7.43;3.10;;;;;;;;;;5091412;28;20031;-60
2021/07/13 04:43:56;;;;;;;3.33;3.03;;;;;;;;;;5090579;28;20016;-60
2021/07/13 04:46:22;;;;;;;3.55;3.20;;;;;;;;;;5089041;28;20521;-60
2021/07/13 04:48:47;;;;;;;4.38;3.30;;;;;;;;;;5090047;28;20543;-60
2021/07/13 04:51:12;;;;;;;3.10;2.70;;;;;;;;;;5089288;28;20032;-59
2021/07/13 04:53:37;;;;;;;4.43;3.05;;;;;;;;;;5089808;28;20055;-61
2021/07/13 04:56:03;;;;;;;4.28;2.75;;;;;;;;;;5087407;28;20024;-61
2021/07/13 04:58:28;;;;;;;3.30;2.63;;;;;;;;;;5091267;28;20036;-60
2021/07/13 05:00:53;;;;;;;3.50;2.50;;;;;;;;;;5091359;28;20115;-60
2021/07/13 05:03:18;;;;;;;5.25;2.55;;;;;;;;;;5089670;28;20098;-60
2021/07/13 05:05:44;;;;;;;5.55;2.65;;;;;;;;;;5088221;28;20042;-60
2021/07/13 05:08:09;;;;;;;3.58;2.33;;;;;;;;;;5091229;28;20031;-61
2021/07/13 05:10:34;;;;;;;3.47;2.45;;;;;;;;;;5091392;28;20020;-61
2021/07/13 05:12:59;;;;;;;3.05;2.33;;;;;;;;;;5091095;28;20027;-60
2021/07/13 05:15:25;;;;;;;4.55;2.60;;;;;;;;;;5088123;28;20032;-60
2021/07/13 05:17:50;;;;;;;3.00;2.70;;;;;;;;;;5091080;28;20017;-60
2021/07/13 05:20:15;;;;;;;3.53;2.50;;;;;;;;;;5087882;28;20020;-59
2021/07/13 05:22:44;;;;;;;5.22;2.97;;;;;;;;;;5080361;28;20030;-61
2021/07/13 05:25:10;;;;;;;3.40;2.10;;;;;;;;;;5078154;28;20020;-60
2021/07/13 05:27:36;;;;;;;2.70;2.08;;;;;;;;;;5093323;28;20012;-59
2021/07/13 05:30:02;;;;;;;2.60;2.35;;;;;;;;;;5091962;28;20433;-60
2021/07/13 05:32:28;;;;;;;2.70;2.00;;;;;;;;;;5094327;28;20020;-60
2021/07/13 05:34:54;;;;;;;3.95;2.00;;;;;;;;;;5093002;28;20458;-60
2021/07/13 05:37:19;;;;;;;3.17;2.00;;;;;;;;;;5090798;28;20049;-60
2021/07/13 05:39:44;;;;;;;3.85;2.17;;;;;;;;;;5093792;28;20316;-60
2021/07/13 05:42:09;;;;;;;2.83;2.15;;;;;;;;;;5094324;28;20224;-60
2021/07/13 05:44:35;;;;;;;4.18;2.55;;;;;;;;;;5092079;28;20016;-60
2021/07/13 05:47:00;;;;;;;5.53;2.30;;;;;;;;;;5069206;28;20474;-60
2021/07/13 05:49:25;;;;;;;3.75;2.03;;;;;;;;;;5092398;28;20027;-61
2021/07/13 05:51:50;;;;;;;3.40;2.70;;;;;;;;;;5080952;28;20048;-61
2021/07/13 05:54:16;;;;;;;4.65;2.28;;;;;;;;;;5092735;28;20263;-61
2021/07/13 05:56:41;;;;;;;5.87;2.17;;;;;;;;;;5084939;28;20020;-61
2021/07/13 05:59:06;;;;;;;3.55;2.40;;;;;;;;;;5083391;28;20301;-62
2021/07/13 06:01:31;;;;;;;1.77;1.60;;;;;;;;;;5082946;28;20643;-61
2021/07/13 06:03:56;;;;;;;3.05;1.95;;;;;;;;;;5086273;28;20020;-61
2021/07/13 06:06:22;;;;;;;3.33;1.57;;;;;;;;;;5082403;28;20066;-60
2021/07/13 06:08:47;;;;;;;2.30;1.20;;;;;;;;;;5090140;28;20266;-61
2021/07/13 06:11:12;;;;;;;3.40;1.88;;;;;;;;;;5092774;28;20068;-60
2021/07/13 06:13:38;;;;;;;1.98;1.55;;;;;;;;;;5091406;28;20371;-61
2021/07/13 06:16:03;;;;;;;2.58;1.30;;;;;;;;;;5088960;28;20055;-60
2021/07/13 06:18:28;;;;;;;2.35;1.42;;;;;;;;;;5091995;28;20058;-62
2021/07/13 06:20:54;;;;;;;4.30;1.10;;;;;;;;;;5092731;28;20158;-60
2021/07/13 06:23:19;;;;;;;3.35;1.23;;;;;;;;;;5093607;28;20027;-61
2021/07/13 06:25:44;;;;;;;1.60;1.08;;;;;;;;;;5086988;28;20399;-61
2021/07/13 06:28:10;;;;;;;1.85;1.33;;;;;;;;;;5093878;28;20020;-61
2021/07/13 06:30:35;;;;;;;2.00;1.52;;;;;;;;;;5094412;28;20016;-60
2021/07/13 06:33:01;;;;;;;3.42;1.30;;;;;;;;;;5094171;28;20816;-61
2021/07/13 06:35:26;;;;;;;2.08;1.10;;;;;;;;;;5088660;28;20402;-61
2021/07/13 06:37:51;;;;;;;2.78;1.10;;;;;;;;;;5088569;28;20146;-61
2021/07/13 06:40:17;;;;;;;1.95;1.00;;;;;;;;;;5090513;28;20020;-60
2021/07/13 06:42:42;;;;;;;2.55;1.25;;;;;;;;;;5093657;28;20023;-61
2021/07/13 06:45:08;;;;;;;2.55;1.00;;;;;;;;;;5090687;28;20099;-60
2021/07/13 06:47:33;;;;;;;1.30;1.15;;;;;;;;;;5091232;28;20161;-62
2021/07/13 06:49:58;;;;;;;2.65;1.25;;;;;;;;;;5088395;28;20069;-60
2021/07/13 06:52:23;;;;;;;1.90;0.90;;;;;;;;;;5091273;28;20040;-60
2021/07/13 06:54:49;;;;;;;1.33;1.00;;;;;;;;;;5089600;28;20262;-61
2021/07/13 06:57:14;;;;;;;1.45;1.10;;;;;;;;;;5089653;28;20594;-61
2021/07/13 06:59:39;;;;;;;1.67;0.83;;;;;;;;;;5092505;28;20028;-61
2021/07/13 07:02:04;;;;;;;1.00;0.90;;;;;;;;;;5092895;28;20292;-61
2021/07/13 07:04:30;;;;;;;1.30;0.88;;;;;;;;;;5092977;28;20459;-61
2021/07/13 07:06:55;;;;;;;1.02;0.93;;;;;;;;;;5089361;28;20081;-62
2021/07/13 07:09:20;;;;;;;2.03;0.80;;;;;;;;;;5092018;28;20020;-61
2021/07/13 07:11:45;;;;;;;2.47;1.10;;;;;;;;;;5093415;28;20459;-61
2021/07/13 07:14:11;;;;;;;1.98;0.60;;;;;;;;;;5090684;28;20544;-61
2021/07/13 07:16:36;;;;;;;3.30;1.08;;;;;;;;;;5082202;28;20098;-61
2021/07/13 07:19:01;;;;;;;1.20;1.10;;;;;;;;;;5086472;28;20058;-63
2021/07/13 07:21:27;;;;;;;3.00;1.50;;;;;;;;;;5092710;28;20004;-60
2021/07/13 07:23:52;;;;;;;2.10;1.40;;;;;;;;;;5088548;28;20023;-61
2021/07/13 07:26:17;;;;;;;1.38;1.10;;;;;;;;;;5078188;28;20013;-61
2021/07/13 07:28:42;;;;;;;1.45;1.17;;;;;;;;;;5075798;28;20020;-61
2021/07/13 07:31:08;;;;;;;1.23;1.13;;;;;;;;;;5088216;28;20020;-61
2021/07/13 07:33:33;;;;;;;1.20;1.10;;;;;;;;;;5090776;28;20267;-61
2021/07/13 07:35:58;;;;;;;1.52;1.02;;;;;;;;;;5087234;28;20374;-61
2021/07/13 07:38:23;;;;;;;1.17;1.05;;;;;;;;;;5092283;28;20107;-61
2021/07/13 07:40:49;;;;;;;1.52;1.30;;;;;;;;;;5091866;28;20115;-62
2021/07/13 07:43:14;;;;;;;1.75;1.27;;;;;;;;;;5091539;28;20060;-62
2021/07/13 07:45:39;;;;;;;2.40;1.25;;;;;;;;;;5084450;28;20024;-60
2021/07/13 07:48:06;;;;;;;2.25;1.25;;;;;;;;;;5091358;28;20061;-61
2021/07/13 07:50:31;;;;;;;2.20;1.20;;;;;;;;;;5082621;28;20504;-61
2021/07/13 07:52:56;;;;;;;2.97;1.70;;;;;;;;;;5079439;28;20123;-60
2021/07/13 07:55:25;;;;;;;2.10;1.13;;;;;;;;;;5069512;28;20389;-61
2021/07/13 07:57:50;;;;;;;2.33;1.27;;;;;;;;;;5081663;28;20012;-61
2021/07/13 08:00:17;;;;;;;4.88;1.48;;;;;;;;;;5091790;28;20074;-61
2021/07/13 08:02:42;;;;;;;3.00;1.40;;;;;;;;;;5079199;28;20026;-61
2021/07/13 08:05:08;;;;;;;1.45;1.35;;;;;;;;;;5086906;28;20016;-62
2021/07/13 08:07:34;;;;;;;2.72;1.55;;;;;;;;;;5091768;28;20051;-61
2021/07/13 08:09:59;;;;;;;2.60;1.17;;;;;;;;;;5091596;28;20016;-61
2021/07/13 08:12:24;;;;;;;2.00;1.80;;;;;;;;;;5089607;28;20107;-62
2021/07/13 08:14:50;;;;;;;2.03;1.60;;;;;;;;;;5070233;28;20020;-62
2021/07/13 08:17:15;;;;;;;1.98;1.40;;;;;;;;;;5090162;28;20486;-61
2021/07/13 08:19:40;;;;;;;1.87;1.77;;;;;;;;;;5091018;28;20040;-61
2021/07/13 08:22:09;;;;;;;1.80;1.70;;;;;;;;;;5089043;28;20282;-61
2021/07/13 08:24:37;;;;;;;2.95;2.05;;;;;;;;;;5091088;28;20020;-60
2021/07/13 08:27:04;;;;;;;2.45;2.25;;;;;;;;;;5087681;28;20020;-60
2021/07/13 08:29:29;;;;;;;1.83;1.73;;;;;;;;;;5091417;28;20020;-61
2021/07/13 08:31:57;;;;;;;1.93;1.83;;;;;;;;;;5091757;28;20069;-61
2021/07/13 08:34:26;;;;;;;2.08;1.90;;;;;;;;;;5091860;28;20262;-60
2021/07/13 08:36:51;;;;;;;2.47;2.28;;;;;;;;;;5099003;28;20036;-61
2021/07/13 08:39:16;;;;;;;2.38;1.77;;;;;;;;;;5091574;28;20487;-60
2021/07/13 08:41:43;;;;;;;2.20;2.00;;;;;;;;;;5094555;28;20262;-61
2021/07/13 08:44:08;;;;;;;2.78;1.98;;;;;;;;;;5090398;28;20381;-61
2021/07/13 08:46:34;;;;;;;2.17;1.97;;;;;;;;;;5089153;28;20099;-60
2021/07/13 08:49:02;;;;;;;3.03;1.83;;;;;;;;;;5091594;28;20289;-61
2021/07/13 08:51:28;;;;;;;2.63;2.35;;;;;;;;;;5077339;28;20021;-60
2021/07/13 08:53:53;;;;;;;3.25;2.03;;;;;;;;;;5091229;28;20024;-59
2021/07/13 08:56:18;;;;;;;3.43;2.17;;;;;;;;;;5088115;28;20023;-60
2021/07/13 08:58:44;;;;;;;4.80;2.15;;;;;;;;;;5086586;28;20339;-60
2021/07/13 09:01:09;;;;;;;3.70;2.30;;;;;;;;;;5094810;28;20128;-60
2021/07/13 09:03:34;;;;;;;3.03;2.73;;;;;;;;;;5095620;28;20024;-62
2021/07/13 09:06:04;;;;;;;2.67;2.47;;;;;;;;;;5092751;28;20016;-59
2021/07/13 09:08:35;;;;;;;3.30;3.00;;;;;;;;;;5095585;28;20028;-60
2021/07/13 09:11:03;;;;;;;3.65;2.80;;;;;;;;;;5095393;28;20034;-60
2021/07/13 09:13:32;;;;;;;3.08;2.80;;;;;;;;;;5095224;28;20538;-61
2021/07/13 09:15:58;;;;;;;3.15;2.85;;;;;;;;;;5092723;28;20020;-61
2021/07/13 09:18:29;;;;;;;2.72;2.63;;;;;;;;;;5095636;28;20099;-61
2021/07/13 09:21:08;;;;;;;2.97;2.67;;;;;;;;;;5095131;28;20390;-61
2021/07/13 09:23:33;;;;;;;2.90;2.78;;;;;;;;;;5095775;28;20028;-61
2021/07/13 09:25:58;;;;;;;3.60;3.30;;;;;;;;;;5092770;28;20073;-61
2021/07/13 09:28:24;;;;;;;3.77;3.47;;;;;;;;;;5095410;28;20333;-60
2021/07/13 09:30:51;;;;;;;3.30;3.10;;;;;;;;;;5095227;28;20269;-60
2021/07/13 09:33:25;;;;;;;4.53;3.33;;;;;;;;;;5094969;28;20066;-60
2021/07/13 09:36:03;;;;;;;3.20;3.00;;;;;;;;;;5091383;28;20024;-62
2021/07/13 09:38:34;;;;;;;3.63;3.03;;;;;;;;;;5094448;28;20505;-60
2021/07/13 09:41:00;;;;;;;3.63;3.10;;;;;;;;;;5094157;28;20027;-60
2021/07/13 09:43:26;;;;;;;3.42;2.42;;;;;;;;;;5093335;28;20035;-60
2021/07/13 09:45:51;;;;;;;3.23;2.40;;;;;;;;;;5087601;28;20467;-61
2021/07/13 09:48:16;;;;;;;3.27;2.43;;;;;;;;;;5091783;28;20262;-61
2021/07/13 09:50:43;;;;;;;3.00;2.73;;;;;;;;;;5090493;28;20065;-61
2021/07/13 09:53:11;;;;;;;3.03;2.35;;;;;;;;;;5093163;28;20285;-61
2021/07/13 09:55:37;;;;;;;2.67;2.47;;;;;;;;;;5091806;28;20049;-61
2021/07/13 09:58:11;;;;;;;3.20;2.50;;;;;;;;;;5087614;28;20028;-61
2021/07/13 10:00:36;;;;;;;;;;;;;;;;;;5093388;28;20024;-61
2021/07/13 10:03:02;;;;;;;2.58;2.38;;;;;;;;;;5092567;28;19919;-60
2021/07/13 10:05:28;;;;;;;2.92;2.83;;;;;;;;;;5091876;28;20483;-61
2021/07/13 10:07:53;;;;;;;3.13;2.70;;;;;;;;;;5093892;28;20389;-61
2021/07/13 10:10:20;;;;;;;2.95;2.70;;;;;;;;;;5092909;28;20532;-61
2021/07/13 10:12:46;;;;;;;2.75;2.55;;;;;;;;;;5093942;28;20020;-62
2021/07/13 10:15:12;;;;;;;2.80;2.60;;;;;;;;;;5091383;28;20020;-60
2021/07/13 10:17:38;;;;;;;2.72;2.53;;;;;;;;;;5094047;28;20092;-60
2021/07/13 10:20:05;;;;;;;2.30;2.10;;;;;;;;;;5094111;28;20039;-61
2021/07/13 10:22:31;;;;;;;2.28;2.08;;;;;;;;;;5093965;28;20111;-60
2021/07/13 10:24:57;;;;;;;2.72;2.22;;;;;;;;;;5092168;28;20020;-60
2021/07/13 10:27:29;;;;;;;2.25;2.15;;;;;;;;;;5092915;28;20545;-61
2021/07/13 10:30:02;;;;;;;3.00;2.80;;;;;;;;;;5092758;28;20477;-61
2021/07/13 10:32:27;;;;;;;3.38;2.75;;;;;;;;;;5094280;28;20135;-61
2021/07/13 10:34:54;;;;;;;2.95;2.60;;;;;;;;;;5091973;28;20094;-61
2021/07/13 10:37:40;;;;;;;3.13;2.92;;;;;;;;;;5092701;28;20067;-61
2021/07/13 10:40:09;;;;;;;2.85;2.65;;;;;;;;;;5092251;28;20020;-61
2021/07/13 10:42:47;;;;;;;2.97;2.78;;;;;;;;;;5093777;28;20095;-61
2021/07/13 10:45:24;;;;;;;3.25;3.05;;;;;;;;;;5090209;28;20012;-61
2021/07/13 10:48:10;;;;;;;2.83;2.63;;;;;;;;;;5089655;28;20024;-61
2021/07/13 10:50:39;;;;;;;3.17;2.97;;;;;;;;;;5093336;28;20408;-60
2021/07/13 10:53:17;;;;;;;2.30;2.13;;;;;;;;;;5092267;28;20453;-61
2021/07/13 10:55:46;;;;;;;2.55;2.30;;;;;;;;;;5090807;28;20535;-62
2021/07/13 10:58:13;;;;;;;2.83;2.35;;;;;;;;;;5083815;28;20024;-60
2021/07/13 11:00:44;;;;;;;4.47;1.90;;;;;;;;;;5073490;28;20013;-61
2021/07/13 11:03:32;;;;;;;3.97;2.10;;;;;;;;;;5090641;28;20031;-61
2021/07/13 11:06:00;;;;;;;1.65;1.15;;;;;;;;;;5089858;28;20040;-61
2021/07/13 11:08:51;;;;;;;1.60;1.42;;;;;;;;;;5088744;28;20021;-64
2021/07/13 11:11:19;;;;;;;1.27;1.23;;;;;;;;;;5090148;28;20024;-64
2021/07/13 11:13:44;;;;;;;2.22;1.50;;;;;;;;;;5091597;28;20490;-61
2021/07/13 11:16:09;;;;;;;2.00;1.50;;;;;;;;;;5089283;28;20024;-60
2021/07/13 11:18:36;;;;;;;1.70;1.40;;;;;;;;;;5092852;28;20028;-62
2021/07/13 11:21:14;;;;;;;1.33;1.13;;;;;;;;;;5092797;28;20568;-60
2021/07/13 11:23:39;;;;;;;2.50;1.48;;;;;;;;;;5090057;28;20489;-61
2021/07/13 11:26:05;;;;;;;1.37;1.27;;;;;;;;;;5089886;28;20062;-60
2021/07/13 11:28:31;;;;;;;0.90;0.90;;;;;;;;;;5091464;28;20107;-61
2021/07/13 11:30:56;;;;;;;1.33;1.13;;;;;;;;;;5082478;28;20021;-61
2021/07/13 11:33:25;;;;;;;2.23;1.07;;;;;;;;;;5084216;28;20086;-61
2021/07/13 11:35:54;;;;;;;1.40;1.30;;;;;;;;;;5081235;28;20752;-61
2021/07/13 11:38:27;;;;;;;1.38;1.27;;;;;;;;;;5086284;28;20386;-61
2021/07/13 11:41:21;;;;;;;1.60;1.08;;;;;;;;;;5092549;28;20020;-61
2021/07/13 11:44:01;;;;;;;1.23;1.17;;;;;;;;;;5086254;28;20086;-61
2021/07/13 11:46:30;;;;;;;3.17;1.02;;;;;;;;;;5089372;28;20024;-61
2021/07/13 11:48:55;;;;;;;1.02;1.00;;;;;;;;;;5092412;28;20023;-61
2021/07/13 11:51:30;;;;;;;1.53;1.10;;;;;;;;;;5091196;28;20024;-61
2021/07/13 11:53:55;;;;;;;1.85;1.45;;;;;;;;;;5091617;28;20281;-62
2021/07/13 11:56:23;;;;;;;2.58;1.35;;;;;;;;;;5089714;28;20016;-61
2021/07/13 11:58:48;;;;;;;2.45;1.30;;;;;;;;;;5091249;28;20076;-61
2021/07/13 12:01:14;;;;;;;2.33;1.20;;;;;;;;;;5091043;28;20028;-61
2021/07/13 12:03:40;;;;;;;1.38;1.10;;;;;;;;;;5089881;28;20419;-61
2021/07/13 12:06:12;;;;;;;1.13;1.03;;;;;;;;;;5088723;28;20016;-61
2021/07/13 12:08:38;;;;;;;1.13;1.13;;;;;;;;;;5092247;28;20047;-61
2021/07/13 12:11:07;;;;;;;1.60;1.50;;;;;;;;;;5091141;28;20463;-61
2021/07/13 12:13:32;;;;;;;1.67;1.30;;;;;;;;;;5091448;28;20107;-61
2021/07/13 12:16:25;;;;;;;1.65;1.40;;;;;;;;;;5088494;28;20115;-61
2021/07/13 12:18:51;;;;;;;1.35;1.20;;;;;;;;;;5078682;28;20024;-60
2021/07/13 12:21:16;;;;;;;1.35;1.13;;;;;;;;;;5091724;28;20020;-60
2021/07/13 12:23:42;;;;;;;1.77;1.38;;;;;;;;;;5092002;28;20091;-61
2021/07/13 12:26:25;;;;;;;3.47;1.30;;;;;;;;;;5088625;28;20042;-61
2021/07/13 12:29:03;;;;;;;1.20;1.10;;;;;;;;;;5082129;28;20042;-61
2021/07/13 12:31:28;;;;;;;1.25;1.25;;;;;;;;;;5089252;28;20110;-61
2021/07/13 12:33:53;;;;;;;1.23;1.10;;;;;;;;;;5090894;28;20107;-61
2021/07/13 12:36:24;;;;;;;1.77;1.30;;;;;;;;;;5088075;28;20262;-61
2021/07/13 12:38:50;;;;;;;1.23;1.17;;;;;;;;;;5091343;28;20027;-62
2021/07/13 12:41:15;;;;;;;1.20;1.10;;;;;;;;;;5090373;28;20360;-62
2021/07/13 12:43:40;;;;;;;1.33;1.10;;;;;;;;;;5091077;28;20016;-61
2021/07/13 12:46:24;;;;;;;2.25;1.10;;;;;;;;;;5088493;28;20044;-61
2021/07/13 12:48:49;;;;;;;1.80;1.00;;;;;;;;;;5090905;28;20081;-61
2021/07/13 12:51:21;;;;;;;1.20;1.10;;;;;;;;;;5090193;28;20040;-61
2021/07/13 12:53:46;;;;;;;2.10;0.90;;;;;;;;;;5090667;28;20028;-61
2021/07/13 12:56:14;;;;;;;1.15;1.05;;;;;;;;;;5094317;28;20101;-62
2021/07/13 12:58:39;;;;;;;1.20;1.20;;;;;;;;;;5090445;28;20032;-62
2021/07/13 13:01:11;;;;;;;1.50;1.40;;;;;;;;;;5090677;28;20094;-62
2021/07/13 13:03:37;;;;;;;1.33;1.25;;;;;;;;;;5091149;28;20020;-62
2021/07/13 13:06:03;;;;;;;1.73;1.40;;;;;;;;;;5088581;28;20436;-62
2021/07/13 13:08:31;;;;;;;1.70;1.30;;;;;;;;;;5091042;28;20073;-62
2021/07/13 13:11:00;;;;;;;1.45;1.15;;;;;;;;;;5090892;28;20020;-62
2021/07/13 13:13:33;;;;;;;1.95;1.65;;;;;;;;;;5091429;28;20063;-61
2021/07/13 13:16:00;;;;;;;2.57;1.93;;;;;;;;;;5086636;28;20099;-61
2021/07/13 13:18:26;;;;;;;2.60;1.23;;;;;;;;;;5091168;28;20024;-62
2021/07/13 13:20:51;;;;;;;1.88;1.60;;;;;;;;;;5090859;28;20039;-62
2021/07/13 13:23:17;;;;;;;2.38;1.70;;;;;;;;;;5091385;28;20107;-62
2021/07/13 13:25:42;;;;;;;1.73;1.63;;;;;;;;;;5088760;28;20020;-62
2021/07/13 13:28:08;;;;;;;2.43;1.80;;;;;;;;;;5090855;28;20071;-61
2021/07/13 13:30:34;;;;;;;1.55;1.48;;;;;;;;;;5090682;28;20326;-62
2021/07/13 13:32:59;;;;;;;2.53;1.73;;;;;;;;;;5091220;28;20028;-62
2021/07/13 13:35:39;;;;;;;2.23;1.30;;;;;;;;;;5088504;28;20657;-62
2021/07/13 13:40:29;;;;;;;2.33;1.90;;;;;;;;;;5090989;28;20027;-61
2021/07/13 13:42:55;;;;;;;4.07;1.50;;;;;;;;;;5090730;28;20032;-61
2021/07/13 13:45:20;;;;;;;1.90;1.80;;;;;;;;;;5089263;28;20118;-61
2021/07/13 13:47:45;;;;;;;2.10;2.00;;;;;;;;;;5094566;28;20520;-61
2021/07/13 13:50:10;;;;;;;2.03;1.93;;;;;;;;;;5094641;28;20056;-61
2021/07/13 13:52:36;;;;;;;2.50;2.20;;;;;;;;;;5094783;28;20040;-61
2021/07/13 13:55:02;;;;;;;2.05;1.90;;;;;;;;;;5090594;28;20028;-61
2021/07/13 13:57:27;;;;;;;2.60;2.40;;;;;;;;;;5094432;28;20015;-61
2021/07/13 13:59:52;;;;;;;2.53;1.97;;;;;;;;;;5094212;28;20031;-61
2021/07/13 14:02:17;;;;;;;1.97;1.80;;;;;;;;;;5094968;28;20016;-61
2021/07/13 14:04:43;;;;;;;1.93;1.80;;;;;;;;;;5094347;28;20391;-61
2021/07/13 14:07:08;;;;;;;2.27;2.10;;;;;;;;;;5091757;28;20483;-61
2021/07/13 14:09:33;;;;;;;2.27;2.00;;;;;;;;;;5094621;28;20024;-61
2021/07/13 14:11:58;;;;;;;3.00;2.30;;;;;;;;;;5094442;28;20023;-62
2021/07/13 14:14:24;;;;;;;2.38;2.17;;;;;;;;;;5094070;28;20020;-62
2021/07/13 14:16:49;;;;;;;3.93;2.67;;;;;;;;;;5091035;28;20058;-62
2021/07/13 14:19:14;;;;;;;2.27;2.07;;;;;;;;;;5093867;28;20023;-62
2021/07/13 14:21:41;;;;;;;2.40;2.20;;;;;;;;;;5094269;28;20083;-62
2021/07/13 14:24:07;;;;;;;1.92;1.83;;;;;;;;;;5094536;28;20024;-61
2021/07/13 14:26:32;;;;;;;2.88;2.40;;;;;;;;;;5091495;28;20020;-61
2021/07/13 14:28:57;;;;;;;2.67;2.53;;;;;;;;;;5094044;28;20020;-61
2021/07/13 14:31:22;;;;;;;2.83;2.63;;;;;;;;;;5093397;28;20149;-62
2021/07/13 14:33:48;;;;;;;3.23;3.03;;;;;;;;;;5093230;28;20081;-62
2021/07/13 14:36:13;;;;;;;3.20;2.40;;;;;;;;;;5091149;28;20031;-62
2021/07/13 14:38:39;;;;;;;3.03;2.83;;;;;;;;;;5093295;28;20266;-62
2021/07/13 14:41:04;;;;;;;3.10;2.90;;;;;;;;;;5094006;28;20020;-62
2021/07/13 14:43:29;;;;;;;3.47;2.63;;;;;;;;;;5093549;28;20024;-61
2021/07/13 14:45:54;;;;;;;2.80;2.60;;;;;;;;;;5090485;28;20024;-61